Flight Track Log - Related Links

Times and Time Zones

All times are in EDT time to prevent confusion due to time zone crossing. See the TAM3444 flight status page for this flight to view local times or setup timezone preferences in your user account.

Time Position Orientation Groundspeed Altitude Reporting Facility
EDT Latitude Longitude Course Direction KTS MPH feet Rate Location/Type
Wed 06:27:47 AM -22.7940 -43.2240 73° East 168 193 200  Level FlightAware
Wed 06:28:11 AM -22.7880 -43.2040 72° East 179 206 1,000 1,756 Climbing FlightAware
Wed 06:28:28 AM -22.7810 -43.1890 63° Northeast 202 232 1,400 1,273 Climbing FlightAware
Wed 06:28:44 AM -22.7670 -43.1750 43° Northeast 233 268 1,700 1,818 Climbing FlightAware
Wed 06:29:01 AM -22.7540 -43.1670 30° Northeast 239 275 2,400 3,290 Climbing FlightAware
Wed 06:29:15 AM -22.7370 -43.1590 23° Northeast 238 274 3,400 3,600 Climbing FlightAware
Wed 06:29:31 AM -22.7230 -43.1470 38° Northeast 238 274 4,200 3,000 Climbing FlightAware
Wed 06:29:39 AM -22.7190 -43.1390 62° Northeast 241 277 4,600 1,875 Climbing FlightAware
Wed 06:29:47 AM -22.7170 -43.1300 76° East 249 287 4,700 1,412 Climbing FlightAware
Wed 06:29:56 AM -22.7160 -43.1200 84° East 259 298 5,000 3,081 Climbing FlightAware
Wed 06:30:24 AM -22.7170 -43.0840 92° East 258 297 6,600 3,682 Climbing FlightAware
Wed 06:30:40 AM -22.7170 -43.0580 90° East 258 297 7,700 4,333 Climbing FlightAware
Wed 06:31:00 AM -22.6930 -43.0220 54° Northeast 275 316 9,200 4,071 Climbing FlightAware
Wed 06:31:08 AM -22.6830 -43.0210 North 278 320 9,600 2,063 Climbing FlightAware
Wed 06:31:32 AM -22.6540 -43.0300 344° North 299 344 10,300 2,032 Climbing FlightAware
Wed 06:32:10 AM -22.6020 -43.0540 337° Northwest 315 362 11,700 1,865 Climbing FlightAware
Wed 06:32:46 AM -22.5520 -43.0760 338° Northwest 344 396 12,600 1,235 Climbing FlightAware
Wed 06:33:18 AM -22.5030 -43.0980 337° Northwest 374 430 13,100 1,412 Climbing FlightAware
Wed 06:33:54 AM -22.4430 -43.1250 337° Northwest 390 449 14,200 1,941 Climbing FlightAware
Wed 06:34:26 AM -22.3900 -43.1490 337° Northwest 396 456 15,300 2,118 Climbing FlightAware
Wed 06:35:02 AM -22.3280 -43.1770 337° Northwest 400 460 16,600 1,917 Climbing FlightAware
Wed 06:35:38 AM -22.2680 -43.2130 331° Northwest 411 473 17,600 1,800 Climbing FlightAware
Wed 06:36:12 AM -22.2140 -43.2460 330° Northwest 411 473 18,700 1,343 Climbing FlightAware
Wed 06:36:45 AM -22.1920 -43.2580 333° Northwest 412 474 19,100 1,200 Climbing FlightAware
Wed 06:37:17 AM -22.1430 -43.2880 330° Northwest 418 481 20,000 1,703 Climbing FlightAware
Wed 06:37:59 AM -22.0700 -43.3320 331° Northwest 424 488 21,200 1,769 Climbing FlightAware
Wed 06:38:35 AM -22.0070 -43.3700 331° Northwest 424 488 22,300 1,652 Climbing FlightAware
Wed 06:39:08 AM -21.9550 -43.4010 331° Northwest 429 494 23,100 1,541 Climbing FlightAware
Wed 06:39:49 AM -21.8780 -43.4470 331° Northwest 435 501 24,200 1,541 Climbing FlightAware
Wed 06:40:22 AM -21.8190 -43.4820 331° Northwest 437 503 25,000 1,644 Climbing FlightAware
Wed 06:41:02 AM -21.7430 -43.5280 331° Northwest 437 503 26,200 1,481 Climbing FlightAware
Wed 06:41:43 AM -21.6700 -43.5710 331° Northwest 444 511 27,000 1,286 Climbing FlightAware
Wed 06:42:12 AM -21.6150 -43.6040 331° Northwest 444 511 27,700 1,286 Climbing FlightAware
Wed 06:42:53 AM -21.5440 -43.6460 331° Northwest 447 514 28,500 1,151 Climbing FlightAware
Wed 06:43:25 AM -21.4860 -43.6810 331° Northwest 450 518 29,100 909 Climbing FlightAware
Wed 06:43:59 AM -21.4200 -43.7200 331° Northwest 458 527 29,500 909 Climbing FlightAware
Wed 06:44:31 AM -21.3670 -43.7510 331° Northwest 461 531 30,100 1,397 Climbing FlightAware
Wed 06:45:12 AM -21.2840 -43.8010 331° Northwest 453 521 31,200 1,308 Climbing FlightAware
Wed 06:45:49 AM -21.2180 -43.8390 332° Northwest 457 526 31,800 943 Climbing FlightAware
Wed 06:46:22 AM -21.1610 -43.8730 331° Northwest 459 528 32,300 1,108 Climbing FlightAware
Wed 06:46:54 AM -21.1030 -43.9080 331° Northwest 459 528 33,000 1,130 Climbing FlightAware
Wed 06:47:31 AM -21.0260 -43.9530 331° Northwest 459 528 33,600 857 Climbing FlightAware
Wed 06:48:04 AM -20.9650 -43.9890 331° Northwest 459 528 34,000 343 Climbing FlightAware
Wed 06:48:41 AM -20.8990 -44.0280 331° Northwest 458 527 34,000  Level FlightAware
Wed 06:49:18 AM -20.8290 -44.0690 331° Northwest 458 527 34,000  Level FlightAware
Wed 06:49:50 AM -20.7690 -44.1040 331° Northwest 456 525 34,000  Level FlightAware
Wed 06:50:31 AM -20.6940 -44.1480 331° Northwest 455 524 34,000  Level FlightAware
Wed 06:51:08 AM -20.6260 -44.1880 331° Northwest 455 524 34,000  Level FlightAware
Wed 06:51:41 AM -20.5690 -44.2210 332° Northwest 455 524 34,000  Level FlightAware
Wed 06:52:17 AM -20.4970 -44.2640 331° Northwest 455 524 34,000  Level FlightAware
Wed 06:52:56 AM -20.3920 -44.3310 329° Northwest 454 522 34,000  Level FlightAware
Wed 06:53:30 AM -20.3300 -44.3710 329° Northwest 456 525 34,000  Level FlightAware
Wed 06:54:04 AM -20.2700 -44.4100 329° Northwest 455 524 34,000  Level FlightAware
Wed 06:54:40 AM -20.2050 -44.4520 329° Northwest 454 522 34,000  Level FlightAware
Wed 06:55:16 AM -20.1390 -44.4940 329° Northwest 453 521 34,000  Level FlightAware
Wed 06:55:49 AM -20.0810 -44.5310 329° Northwest 453 521 34,000  Level FlightAware
Wed 06:56:24 AM -20.0180 -44.5720 329° Northwest 453 521 34,000  Level FlightAware
Wed 06:57:01 AM -19.9540 -44.6130 329° Northwest 452 520 34,000  Level FlightAware
Wed 06:57:42 AM -19.8780 -44.6610 329° Northwest 452 520 34,000  Level FlightAware
Wed 06:58:13 AM -19.8220 -44.6970 329° Northwest 452 520 34,000  Level FlightAware
Wed 06:58:53 AM -19.7560 -44.7390 329° Northwest 452 520 34,000  Level FlightAware
Wed 06:59:31 AM -19.6850 -44.7840 329° Northwest 453 521 34,000  Level FlightAware
Wed 06:59:57 AM -19.6440 -44.8110 322° Northwest 452 520 34,000  Level FlightAware
Wed 07:02:00 AM -19.5265 -44.9174 322° Northwest  Level Estimated
Wed 07:02:24 AM -19.3940 -44.9700 329° Northwest 454 522 34,000  Level FlightAware
Wed 07:03:08 AM -19.3130 -45.0210 329° Northwest 455 524 34,000  Level FlightAware
Wed 07:03:41 AM -19.2380 -45.0690 329° Northwest 456 525 34,000  Level FlightAware
Wed 07:04:17 AM -19.1680 -45.1140 329° Northwest 456 525 34,000  Level FlightAware
Wed 07:05:15 AM -19.0720 -45.1740 329° Northwest 457 526 34,000  Level FlightAware
Wed 07:05:59 AM -18.9790 -45.2320 329° Northwest 459 528 34,000  Level FlightAware
Wed 07:06:37 AM -18.9150 -45.2730 329° Northwest 460 529 34,000  Level FlightAware
Wed 07:07:13 AM -18.8470 -45.3160 329° Northwest 461 531 34,000  Level FlightAware
Wed 07:07:53 AM -18.7790 -45.3580 330° Northwest 462 532 34,000  Level FlightAware
Wed 07:08:25 AM -18.7170 -45.3970 329° Northwest 461 531 34,000  Level FlightAware
Wed 07:09:02 AM -18.6450 -45.4420 329° Northwest 462 532 34,000  Level FlightAware
Wed 07:09:50 AM -18.5560 -45.4980 329° Northwest 461 531 34,000  Level FlightAware
Wed 07:10:19 AM -18.5040 -45.5300 330° Northwest 461 531 34,000  Level FlightAware
Wed 07:10:59 AM -18.4310 -45.5760 329° Northwest 455 524 34,000  Level FlightAware
Wed 07:11:32 AM -18.3830 -45.6060 329° Northwest 454 522 34,000  Level FlightAware
Wed 07:12:15 AM -18.2970 -45.6600 329° Northwest 454 522 34,000  Level FlightAware
Wed 07:12:49 AM -18.2310 -45.7010 329° Northwest 452 520 34,000  Level FlightAware
Wed 07:13:24 AM -18.1680 -45.7400 330° Northwest 454 522 34,000  Level FlightAware
Wed 07:14:00 AM -18.1070 -45.7780 329° Northwest 454 522 34,000  Level FlightAware
Wed 07:14:39 AM -18.0340 -45.8230 330° Northwest 455 524 34,000  Level FlightAware
Wed 07:15:20 AM -17.9610 -45.8690 329° Northwest 456 525 34,000  Level FlightAware
Wed 07:15:50 AM -17.9040 -45.9040 330° Northwest 456 525 34,000  Level FlightAware
Wed 07:16:30 AM -17.8360 -45.9470 329° Northwest 455 524 34,000  Level FlightAware
Wed 07:17:12 AM -17.7620 -45.9930 329° Northwest 455 524 34,000  Level FlightAware
Wed 07:17:49 AM -17.7050 -46.0290 329° Northwest 455 524 34,000  Level FlightAware
Wed 07:18:23 AM -17.6530 -46.0620 329° Northwest 455 524 34,000  Level FlightAware
Wed 07:18:59 AM -17.5980 -46.0970 329° Northwest 455 524 34,000  Level FlightAware
Wed 07:19:35 AM -17.5430 -46.1310 329° Northwest 455 524 34,000  Level FlightAware
Wed 07:19:59 AM -17.5060 -46.1550 328° Northwest 455 524 34,000  Level FlightAware
Wed 07:21:05 AM -17.4050 -46.2180 329° Northwest 455 524 34,000  Level FlightAware
Wed 07:21:42 AM -17.3480 -46.2540 329° Northwest 455 524 34,000  Level FlightAware
Wed 07:22:18 AM -17.2930 -46.2890 329° Northwest 455 524 34,000  Level FlightAware
Wed 07:22:31 AM -17.2730 -46.3010 330° Northwest 455 524 34,000  Level FlightAware
Wed 07:23:27 AM -17.1870 -46.3550 329° Northwest 455 524 34,000  Level FlightAware
Wed 07:24:03 AM -17.1320 -46.3900 329° Northwest 455 524 34,000  Level FlightAware
Wed 07:24:40 AM -17.0750 -46.4260 329° Northwest 455 524 34,000  Level FlightAware
Wed 07:25:33 AM -16.8670 -46.5450 331° Northwest 453 521 34,000  Level FlightAware
Wed 07:26:09 AM -16.8120 -46.5800 329° Northwest 453 521 34,000  Level FlightAware
Wed 07:26:45 AM -16.7570 -46.6140 329° Northwest 453 521 34,000  Level FlightAware
Wed 07:27:21 AM -16.7020 -46.6490 329° Northwest 453 521 34,000  Level FlightAware
Wed 07:28:10 AM -16.6270 -46.6950 330° Northwest 453 521 34,000  Level FlightAware
Wed 07:28:46 AM -16.5720 -46.7300 329° Northwest 453 521 34,000  Level FlightAware
Wed 07:29:22 AM -16.5170 -46.7640 329° Northwest 453 521 34,000  Level FlightAware
Wed 07:29:58 AM -16.4620 -46.7990 329° Northwest 453 521 34,000  Level FlightAware
Wed 07:30:34 AM -16.4070 -46.8330 329° Northwest 453 521 34,000  Level FlightAware
Wed 07:31:10 AM -16.3530 -46.8680 328° Northwest 453 521 34,000  Level FlightAware
Wed 07:31:46 AM -16.2980 -46.9020 329° Northwest 453 521 34,000  Level FlightAware
Wed 07:32:22 AM -16.2430 -46.9370 329° Northwest 453 521 34,000  Level FlightAware
Wed 07:32:59 AM -16.1860 -46.9720 329° Northwest 453 521 34,000  Level FlightAware
Wed 07:33:35 AM -16.1310 -47.0060 329° Northwest 453 521 34,000  Level FlightAware
Wed 07:34:11 AM -16.0760 -47.0410 329° Northwest 453 521 34,000  Level FlightAware
Wed 07:34:47 AM -16.0210 -47.0750 329° Northwest 453 521 34,000 -9,804 Level FlightAware
Wed 07:36:03 AM -16.0900 -47.5580 315° West 377 434 15,700 -10,500 Descending FlightAware
Wed 07:36:39 AM -16.0460 -47.6050 314° West 371 427 14,400 -2,083 Descending FlightAware
Wed 07:37:15 AM -16.0030 -47.6500 315° West 366 421 13,200 -1,313 Descending FlightAware
Wed 07:37:43 AM -15.9720 -47.6850 313° West 347 399 13,000 -300 Descending FlightAware
Wed 07:37:55 AM -15.9640 -47.7030 295° West 335 386 13,000  Level FlightAware
Wed 07:38:31 AM -15.9640 -47.7570 270° West 295 339 13,000  Level FlightAware
Wed 07:39:07 AM -15.9670 -47.8060 266° West 270 311 13,000  Level FlightAware
Wed 07:39:43 AM -15.9700 -47.8520 266° West 267 307 13,000  Level FlightAware
Wed 07:40:00 AM -15.9710 -47.8720 267° West 267 307 13,000 -212 Level FlightAware
Wed 07:41:08 AM -15.9770 -47.9450 265° West 264 304 12,700 -736 Descending FlightAware
Wed 07:41:46 AM -15.9820 -48.0080 265° West 265 305 11,700 -1,479 Descending FlightAware
Wed 07:42:21 AM -15.9860 -48.0530 265° West 268 308 10,900 -1,200 Descending FlightAware
Wed 07:42:36 AM -15.9880 -48.0720 264° West 265 305 10,700 -1,000 Descending FlightAware
Wed 07:43:33 AM -15.9700 -48.1330 287° West 246 283 9,700 -1,360 Descending FlightAware
Wed 07:43:51 AM -15.9530 -48.1490 318° Northwest 252 290 9,000 -2,211 Descending FlightAware
Wed 07:44:11 AM -15.9340 -48.1640 323° Northwest 263 303 8,300 -1,800 Descending FlightAware
Wed 07:44:21 AM -15.9220 -48.1660 351° North 253 291 8,100 -1,400 Descending FlightAware
Wed 07:44:41 AM -15.9010 -48.1600 15° North 244 281 7,600 -1,400 Descending FlightAware
Wed 07:44:51 AM -15.8930 -48.1520 44° Northeast 239 275 7,400 -1,143 Descending FlightAware
Wed 07:45:02 AM -15.8890 -48.1410 69° East 228 262 7,200 -1,200 Descending FlightAware
Wed 07:45:11 AM -15.8900 -48.1310 96° East 214 246 7,000 -1,500 Descending FlightAware
Wed 07:45:26 AM -15.8910 -48.1160 94° East 203 234 6,600 -1,227 Descending FlightAware
Wed 07:45:55 AM -15.8900 -48.0880 88° East 185 213 6,100 -735 Descending FlightAware
Wed 07:46:15 AM -15.8890 -48.0730 86° East 156 180 6,000 -1,050 Descending FlightAware
Wed 07:46:35 AM -15.8880 -48.0570 86° East 161 185 5,400 -1,385 Descending FlightAware
Wed 07:46:54 AM -15.8870 -48.0450 85° East 157 181 5,100 -900 Descending FlightAware
Wed 07:47:15 AM -15.8860 -48.0280 87° East 145 167 4,800 -766 Descending FlightAware
Wed 07:47:41 AM -15.8850 -48.0100 87° East 146 168 4,500 -766 Descending FlightAware
Wed 07:48:02 AM -15.8840 -47.9960 86° East 146 168 4,200 -800 Descending FlightAware
Wed 07:48:26 AM -15.8830 -47.9780 87° East 147 169 3,900 -682 Descending FlightAware
Wed 07:48:46 AM -15.8820 -47.9640 86° East 149 171 3,700 -750 Descending FlightAware
Wed 07:49:06 AM -15.8810 -47.9500 86° East 148 170 3,400 -750 Descending FlightAware
Wed 07:49:26 AM -15.8800 -47.9360 86° East 150 173 3,200 -200 Descending FlightAware
Wed 07:50:06 AM -15.8790 -47.9130 87° East 141 162 3,200 -80 Level FlightAware
Wed 07:50:41 AM -15.8780 -47.9170 285° West 141 162 3,100 -83 Descending FlightAware
Wed 07:51:18 AM -15.8760 -47.9010 83° East 141 162 3,100 55 Level FlightAware
Wed 07:52:31 AM -15.8730 -47.9160 282° West 141 162 3,200 56 Climbing FlightAware
Wed 07:53:06 AM -15.8720 -47.9010 86° East 141 162 3,200  Level FlightAware

Login

Don't have an account? Register now (free) for customized features, flight alerts, and more!